Latest Weather Observations for Camden

IDN60801

Issued at 10:02 am EST Sunday 2 August 2015 (issued every 30 minutes, with the page automatically refreshed every 10 minutes)

About weather observations | Map of weather stations | Latest weather observations for NSW | Other Formats
Station Details ID: 068192 Name: CAMDEN AIRPORT AWS Lat: -34.04 Lon: 150.69 Height: 73.9 m
Data from the previous 72 hours. | See also: Recent months at Camden
Date/Time
EST
Temp
°C
App
Temp
°C
Dew
Point
Rel
Hum
%
Delta-T
°C
Wind Press
QNH
hPa
Press
MSL
hPa
Rain
since 9 am
mm
Dir
 
Spd
km/h
Gust
km/h
Spd
kts
Gust
kts
02/10:00am 15.7 14.9 6.7 55 4.4 CALM 0 0 0 0 1015.0 1015.1 -
02/09:30am 13.7 12.2 6.6 62 3.4 WNW 4 7 2 4 1015.2 1015.3 0.0
02/09:00am 11.7 10.9 6.4 70 2.5 CALM 0 0 0 0 1015.1 1015.2 0.0
02/08:30am 9.5 8.1 8.7 95 0.4 ENE 6 9 3 5 1015.8 1015.8 0.0
02/08:00am 5.2 4.1 5.1 99 0.0 CALM 0 0 0 0 1016.3 1016.3 0.0
02/07:46am 4.8 3.6 4.7 99 0.0 CALM 0 0 0 0 1016.2 1016.2 0.0
02/07:35am 4.7 3.5 4.6 99 0.0 CALM 0 0 0 0 1016.0 1016.0 0.0
02/07:30am 4.5 3.3 4.4 99 0.0 CALM 0 0 0 0 1015.8 1015.8 0.0
02/07:02am 5.1 4.0 5.0 99 0.0 CALM 0 0 0 0 1015.8 1015.8 0.0
02/07:00am 5.1 4.0 5.0 99 0.0 CALM 0 0 0 0 1015.8 1015.8 0.0
02/06:32am 4.4 2.7 4.0 97 0.2 NNW 2 7 1 4 1015.2 1015.3 0.0
02/06:30am 4.5 2.8 4.1 97 0.2 WNW 2 7 1 4 1015.2 1015.3 0.0
02/06:00am 5.7 4.7 5.4 98 0.1 CALM 0 0 0 0 1015.2 1015.3 0.0
02/05:30am 5.1 3.4 3.9 92 0.5 N 2 7 1 4 1015.2 1015.3 0.0
02/05:00am 6.5 5.4 5.3 92 0.5 CALM 0 0 0 0 1015.3 1015.4 0.0
02/04:30am 7.2 6.2 5.7 90 0.7 CALM 0 0 0 0 1015.6 1015.6 0.0
02/04:00am 7.8 7.0 6.3 90 0.7 CALM 0 0 0 0 1015.6 1015.6 0.0
02/03:30am 7.9 7.2 6.8 93 0.5 CALM 0 0 0 0 1015.8 1015.8 0.0
02/03:00am 7.7 6.9 6.5 92 0.6 CALM 0 0 0 0 1016.0 1016.0 0.0
02/02:30am 7.4 6.2 6.3 93 0.5 SW 2 7 1 4 1016.2 1016.2 0.0
02/02:00am 7.4 6.6 6.5 94 0.4 CALM 0 0 0 0 1016.3 1016.3 0.0
02/01:30am 6.6 5.6 5.4 92 0.5 CALM 0 0 0 0 1017.0 1017.0 0.0
02/01:00am 6.0 4.7 4.3 89 0.7 CALM 0 0 0 0 1017.0 1017.0 0.0
02/12:30am 6.1 4.9 4.4 89 0.7 CALM 0 0 0 0 1016.9 1016.9 0.0
02/12:00am 7.0 5.9 5.0 87 0.9 CALM 0 0 0 0 1016.9 1016.9 0.0
 
Date/Time
EST
Temp
°C
App
Temp
°C
Dew
Point
Rel
Hum
%
Delta-T
°C
Wind Press
QNH
hPa
Press
MSL
hPa
Rain
since 9 am
mm
Dir
 
Spd
km/h
Gust
km/h
Spd
kts
Gust
kts
01/11:30pm 7.9 6.9 5.7 86 1.0 CALM 0 0 0 0 1016.9 1016.9 0.0
01/11:00pm 8.0 6.8 4.8 80 1.4 CALM 0 0 0 0 1017.0 1017.0 0.0
01/10:30pm 9.7 7.3 5.3 74 2.0 S 7 9 4 5 1017.4 1017.4 0.0
01/10:00pm 10.2 9.2 5.8 74 2.0 CALM 0 0 0 0 1017.4 1017.4 0.0
01/09:30pm 11.3 10.3 5.6 68 2.6 CALM 0 0 0 0 1017.3 1017.3 0.0
01/09:00pm 12.2 11.1 4.9 61 3.4 CALM 0 6 0 3 1017.6 1017.6 0.0
01/08:30pm 12.6 10.2 5.3 61 3.4 S 7 9 4 5 1017.5 1017.5 0.0
01/08:00pm 13.6 11.2 4.5 54 4.2 N 6 7 3 4 1016.9 1016.9 0.0
01/07:30pm 14.2 11.7 4.8 53 4.4 NNW 7 9 4 5 1016.9 1016.9 0.0
01/07:00pm 14.9 11.6 4.6 50 4.8 NW 11 13 6 7 1016.4 1016.4 0.0
01/06:30pm 16.2 13.3 4.6 46 5.5 NNW 9 11 5 6 1016.2 1016.2 0.0
01/06:00pm 17.0 12.1 4.0 42 6.1 N 19 22 10 12 1015.9 1015.9 0.0
01/05:30pm 17.3 12.7 3.6 40 6.4 N 17 20 9 11 1015.3 1015.4 0.0
01/05:00pm 17.8 12.9 1.7 34 7.2 N 17 22 9 12 1015.0 1015.1 0.0
01/04:30pm 19.6 14.3 2.0 31 8.1 N 19 24 10 13 1014.7 1014.8 0.0
01/04:00pm 20.2 15.0 2.5 31 8.3 N 19 26 10 14 1014.6 1014.7 0.0
01/03:30pm 20.1 14.6 2.0 30 8.4 NNW 20 26 11 14 1014.7 1014.8 0.0
01/03:00pm 20.8 13.6 3.1 31 8.4 NNW 30 39 16 21 1014.9 1015.0 0.0
01/02:30pm 19.8 13.4 3.1 33 7.9 NW 26 35 14 19 1015.1 1015.2 0.0
01/02:11pm 19.2 12.5 3.8 36 7.3 NNW 28 46 15 25 1015.1 1015.2 0.0
01/02:00pm 19.2 14.2 3.4 35 7.4 NW 19 26 10 14 1015.3 1015.4 0.0
01/01:30pm 20.9 16.3 3.6 32 8.3 NW 17 22 9 12 1015.3 1015.4 0.0
01/01:00pm 19.5 13.0 2.8 33 7.8 NW 26 39 14 21 1016.0 1016.0 0.0
01/12:30pm 17.6 15.9 7.6 52 5.1 NW 6 9 3 5 1016.5 1016.5 0.0
01/12:00pm 16.2 15.7 7.7 57 4.3 CALM 0 0 0 0 1016.4 1016.4 0.0
01/11:30am 13.6 13.0 7.4 66 3.0 CALM 0 0 0 0 1017.3 1017.3 0.0
01/11:00am 12.2 11.6 7.3 72 2.4 CALM 0 6 0 3 1018.1 1018.1 0.0
01/10:30am 11.0 10.2 6.7 75 2.0 CALM 0 0 0 0 1018.4 1018.4 0.0
01/10:00am 11.0 8.9 6.7 75 2.0 NW 7 9 4 5 1019.1 1019.1 0.0
01/09:30am 8.6 7.9 6.9 89 0.8 CALM 0 0 0 0 1018.5 1018.6 0.0
01/09:00am 5.7 3.6 5.6 99 0.0 SSE 6 9 3 5 1018.9 1019.0 0.0
01/08:30am 3.7 1.9 3.6 99 0.0 WSW 2 6 1 3 1019.1 1019.2 0.0
01/08:00am 2.6 0.3 2.5 99 0.0 SW 4 7 2 4 1019.1 1019.2 0.0
01/07:30am 2.0 0.3 1.9 99 0.0 CALM 0 0 0 0 1018.6 1018.7 0.0
01/07:02am 1.2 -1.4 1.1 99 0.0 SSE 4 7 2 4 1018.3 1018.4 0.0
01/07:01am 1.1 -1.5 1.0 99 0.0 SSE 4 7 2 4 1018.3 1018.4 0.0
01/07:00am 1.1 -1.5 1.0 99 0.0 SSE 4 7 2 4 1018.2 1018.3 0.0
01/06:30am 1.2 -1.4 1.1 99 0.0 SW 4 7 2 4 1018.0 1018.1 0.0
01/06:26am 1.2 -1.0 1.1 99 0.0 NW 2 7 1 4 1018.1 1018.2 0.0
01/06:14am 1.5 -0.3 1.4 99 0.0 CALM 0 0 0 0 1018.0 1018.1 0.0
01/06:00am 1.7 -0.4 1.6 99 0.0 N 2 6 1 3 1017.9 1018.0 0.0
01/05:47am 1.4 -1.1 1.3 99 0.0 NNE 4 7 2 4 1017.9 1018.0 0.0
01/05:30am 1.6 -0.2 1.5 99 0.0 CALM 0 9 0 5 1018.0 1018.1 0.0
01/05:27am 1.6 -0.2 1.5 99 0.0 CALM 0 0 0 0 1018.1 1018.2 0.0
01/05:20am 1.2 -0.6 1.1 99 0.0 CALM 0 0 0 0 1018.2 1018.3 0.0
01/05:00am 1.0 -0.8 0.9 99 0.0 CALM 0 2 0 1 1018.1 1018.2 0.0
01/04:54am 0.9 -1.3 0.8 99 0.0 SW 2 6 1 3 1018.1 1018.2 0.0
01/04:52am 1.0 -1.6 0.9 99 0.0 SW 4 6 2 3 1018.1 1018.2 0.0
01/04:30am 0.6 -2.1 0.5 99 0.0 S 4 7 2 4 1018.3 1018.4 0.0
01/04:00am 1.3 -0.5 1.2 99 0.0 CALM 0 0 0 0 1018.8 1018.9 0.0
01/03:58am 1.1 -0.7 1.0 99 0.0 CALM 0 0 0 0 1018.8 1018.9 0.0
01/03:36am 1.7 -0.4 1.6 99 0.0 W 2 6 1 3 1019.2 1019.3 0.0
01/03:30am 1.7 -0.8 1.6 99 0.0 W 4 6 2 3 1019.1 1019.2 0.0
01/03:00am 1.9 0.2 1.8 99 0.0 CALM 0 6 0 3 1019.0 1019.1 0.0
01/02:39am 1.4 -1.5 1.3 99 0.0 NNE 6 9 3 5 1019.2 1019.3 0.0
01/02:36am 1.6 -0.9 1.5 99 0.0 S 4 7 2 4 1019.2 1019.3 0.0
01/02:30am 2.3 0.7 2.2 99 0.0 CALM 0 0 0 0 1019.3 1019.4 0.0
01/02:23am 2.8 1.2 2.7 99 0.0 CALM 0 0 0 0 1019.3 1019.4 0.0
01/02:00am 3.6 2.2 3.5 99 0.0 CALM 0 0 0 0 1019.7 1019.8 0.0
01/01:32am 2.7 1.1 2.6 99 0.0 CALM 0 0 0 0 1019.8 1019.9 0.0
01/01:31am 2.7 1.1 2.6 99 0.0 CALM 0 0 0 0 1019.8 1019.9 0.0
01/01:30am 2.7 1.1 2.6 99 0.0 CALM 0 0 0 0 1019.8 1019.9 0.0
01/01:17am 2.4 0.3 2.0 97 0.2 SSW 2 7 1 4 1020.0 1020.1 0.0
01/01:15am 2.6 1.0 2.2 97 0.2 CALM 0 7 0 4 1020.0 1020.1 0.0
01/01:12am 2.8 1.2 2.4 97 0.2 CALM 0 0 0 0 1020.0 1020.1 0.0
01/01:07am 2.8 1.2 2.4 97 0.2 CALM 0 0 0 0 1020.0 1020.1 0.0
01/01:05am 2.8 1.2 2.4 97 0.2 CALM 0 6 0 3 1020.0 1020.1 0.0
01/01:00am 3.6 1.4 3.3 98 0.1 S 4 7 2 4 1020.0 1020.1 0.0
01/12:49am 3.4 0.8 3.0 97 0.2 SSW 6 7 3 4 1020.0 1020.1 0.0
01/12:30am 5.0 3.9 4.9 99 0.0 CALM 0 0 0 0 1020.4 1020.5 0.0
01/12:01am 4.5 3.2 4.1 97 0.2 CALM 0 0 0 0 1021.0 1021.1 0.0
01/12:00am 4.6 3.3 4.2 97 0.2 CALM 0 0 0 0 1021.1 1021.2 0.0
 
Date/Time
EST
Temp
°C
App
Temp
°C
Dew
Point
Rel
Hum
%
Delta-T
°C
Wind Press
QNH
hPa
Press
MSL
hPa
Rain
since 9 am
mm
Dir
 
Spd
km/h
Gust
km/h
Spd
kts
Gust
kts
31/11:57pm 4.8 3.6 4.4 97 0.2 CALM 0 0 0 0 1021.1 1021.2 0.0
31/11:30pm 5.0 3.7 4.3 95 0.3 CALM 0 0 0 0 1021.4 1021.5 0.0
31/11:00pm 5.7 4.6 5.3 97 0.2 CALM 0 0 0 0 1021.6 1021.7 0.0
31/10:30pm 5.5 3.2 4.6 94 0.4 S 6 9 3 5 1021.6 1021.7 0.0
31/10:00pm 5.8 4.1 4.0 88 0.8 ENE 2 9 1 5 1021.5 1021.6 0.0
31/09:30pm 7.2 6.2 5.8 91 0.6 CALM 0 0 0 0 1021.4 1021.5 0.0
31/09:00pm 7.4 6.3 5.2 86 1.0 CALM 0 0 0 0 1021.2 1021.3 0.0
31/08:30pm 9.0 8.2 6.4 84 1.2 CALM 0 0 0 0 1021.2 1021.3 0.0
31/08:00pm 8.7 7.6 5.3 79 1.5 CALM 0 0 0 0 1021.1 1021.2 0.0
31/07:30pm 10.4 8.3 6.0 74 2.0 SSW 6 7 3 4 1020.9 1021.0 0.0
31/07:00pm 10.1 7.9 5.1 71 2.3 SSW 6 9 3 5 1020.8 1020.9 0.0
31/06:30pm 12.7 10.4 5.6 62 3.3 SE 7 9 4 5 1020.3 1020.4 0.0
31/06:00pm 12.8 11.8 5.5 61 3.4 CALM 0 0 0 0 1019.8 1019.9 0.0
31/05:30pm 14.4 12.3 4.1 50 4.7 NNE 4 7 2 4 1019.7 1019.8 0.0
31/05:00pm 15.9 13.0 4.6 47 5.3 NNE 9 11 5 6 1019.4 1019.5 0.0
31/04:30pm 17.6 13.8 3.9 40 6.4 NNE 13 17 7 9 1019.1 1019.2 0.0
31/04:00pm 18.8 15.7 3.4 36 7.2 NNE 9 15 5 8 1019.1 1019.2 0.0
31/03:30pm 19.0 15.8 3.2 35 7.4 N 9 15 5 8 1019.2 1019.3 0.0
31/03:00pm 19.3 16.7 3.1 34 7.6 N 6 13 3 7 1019.1 1019.2 0.0
31/02:30pm 19.5 17.5 2.4 32 7.9 ENE 2 9 1 5 1019.2 1019.3 0.0
31/02:00pm 19.2 17.3 2.6 33 7.7 NNW 2 9 1 5 1019.4 1019.5 0.0
31/01:30pm 18.8 16.2 3.0 35 7.4 NE 6 11 3 6 1019.6 1019.7 0.0
31/01:00pm 19.0 16.3 2.8 34 7.5 N 6 19 3 10 1019.9 1020.0 0.0
31/12:30pm 18.3 15.0 2.2 34 7.4 NE 9 11 5 6 1020.2 1020.3 0.0
31/12:00pm 17.5 14.5 1.9 35 7.0 N 7 13 4 7 1020.8 1020.9 0.0
31/11:30am 17.3 14.1 2.9 38 6.6 WNW 9 22 5 12 1021.3 1021.4 0.0
31/11:00am 17.1 13.8 2.3 37 6.7 NNW 9 13 5 7 1021.6 1021.7 0.0
31/10:30am 16.0 13.6 5.3 49 5.1 NW 7 9 4 5 1021.7 1021.8 0.0
31/10:00am 14.1 12.6 4.9 54 4.3 NNW 2 7 1 4 1021.7 1021.8 0.0
31/09:30am 12.6 11.1 4.8 59 3.6 N 2 6 1 3 1021.8 1021.9 0.0
31/09:00am 9.3 7.7 4.5 72 2.1 NNW 2 6 1 3 1022.0 1022.1 0.0
31/08:30am 6.1 4.7 3.6 84 1.1 CALM 0 0 0 0 1021.8 1021.9 0.0
31/08:00am 5.3 3.9 3.5 88 0.7 CALM 0 0 0 0 1021.4 1021.5 0.0
31/07:30am 3.7 0.5 2.8 94 0.4 SE 9 11 5 6 1021.3 1021.4 0.0
31/07:00am 2.3 0.4 0.8 90 0.6 CALM 0 0 0 0 1020.8 1020.9 0.0
31/06:30am 3.6 1.2 2.4 92 0.5 NNE 4 9 2 5 1020.6 1020.7 0.0
31/06:00am 3.0 0.0 1.1 87 0.7 WSW 6 13 3 7 1019.9 1020.0 0.0
31/05:30am 3.5 1.4 1.5 87 0.8 W 2 9 1 5 1019.9 1020.0 0.0
31/05:00am 4.9 1.5 1.7 80 1.3 S 9 11 5 6 1019.4 1019.5 0.0
31/04:30am 6.1 4.5 2.7 79 1.4 CALM 0 0 0 0 1019.0 1019.1 0.0
31/04:00am 7.0 5.0 2.5 73 1.9 E 2 6 1 3 1018.8 1018.9 0.0
31/03:30am 9.1 7.5 2.4 63 2.8 CALM 0 0 0 0 1018.7 1018.8 0.0
31/03:00am 7.7 5.6 2.0 67 2.3 W 2 7 1 4 1018.8 1018.9 0.0
31/02:30am 9.0 6.1 1.4 59 3.1 NNW 6 7 3 4 1018.7 1018.8 0.0
31/02:00am 10.6 8.1 1.4 53 3.8 N 4 9 2 5 1018.9 1019.0 0.0
31/01:30am 11.5 7.3 1.5 50 4.2 W 13 17 7 9 1018.9 1019.0 0.0
31/01:00am 12.1 8.6 1.1 47 4.6 W 9 11 5 6 1018.7 1018.8 0.0
31/12:30am 13.4 9.1 0.8 42 5.4 WNW 13 20 7 11 1018.8 1018.9 0.0
31/12:00am 12.9 8.8 2.2 48 4.7 W 13 19 7 10 1019.0 1019.1 0.0
 
Date/Time
EST
Temp
°C
App
Temp
°C
Dew
Point
Rel
Hum
%
Delta-T
°C
Wind Press
QNH
hPa
Press
MSL
hPa
Rain
since 9 am
mm
Dir
 
Spd
km/h
Gust
km/h
Spd
kts
Gust
kts
30/11:30pm 12.6 9.3 2.5 50 4.4 W 9 13 5 7 1018.7 1018.8 0.0
30/11:00pm 12.6 8.3 3.0 52 4.2 NNW 15 17 8 9 1018.2 1018.3 0.0
30/10:30pm 12.7 9.1 2.8 51 4.4 NNW 11 15 6 8 1018.5 1018.6 0.0
30/10:00pm 14.0 8.6 2.3 45 5.1 NW 20 30 11 16 1018.9 1019.0 0.0
30/09:30pm 13.6 9.5 2.5 47 4.9 NW 13 17 7 9 1018.7 1018.8 0.0
30/09:00pm 13.9 9.0 2.2 45 5.1 NW 17 22 9 12 1018.9 1019.0 0.0
30/08:30pm 12.3 8.1 1.6 48 4.6 NNW 13 19 7 10 1018.9 1019.0 0.0
30/08:00pm 14.4 9.0 1.0 40 5.8 WNW 19 28 10 15 1019.2 1019.3 0.0
30/07:30pm 14.2 9.9 1.2 41 5.6 NW 13 20 7 11 1019.3 1019.4 0.0
30/07:00pm 14.0 8.9 1.0 41 5.6 NW 17 20 9 11 1019.4 1019.5 0.0
30/06:30pm 14.4 10.0 0.6 39 5.9 NW 13 19 7 10 1019.1 1019.2 0.0
30/06:00pm 14.5 9.5 1.1 40 5.8 NNW 17 22 9 12 1018.8 1018.9 0.0
30/05:30pm 14.5 10.6 1.4 41 5.7 NW 11 15 6 8 1018.7 1018.8 0.0
30/05:00pm 15.3 11.2 2.1 41 5.9 N 13 15 7 8 1018.5 1018.6 0.0
30/04:30pm 16.1 11.2 2.2 39 6.2 N 17 20 9 11 1018.7 1018.8 0.0
30/04:00pm 17.5 12.6 1.9 35 7.0 NNW 17 20 9 11 1018.7 1018.8 0.0
30/03:30pm 18.4 14.5 3.5 37 7.0 N 13 15 7 8 1019.3 1019.4 0.0
30/03:00pm 19.0 14.7 3.2 35 7.4 N 15 19 8 10 1019.8 1019.9 0.0
30/02:30pm 18.4 14.5 3.5 37 7.0 N 13 19 7 10 1019.9 1020.0 0.0
30/02:00pm 18.9 14.6 3.5 36 7.2 N 15 19 8 10 1020.3 1020.4 0.0
30/01:30pm 17.7 13.6 4.6 42 6.3 NNE 15 19 8 10 1021.1 1021.2 0.0
30/01:00pm 17.8 14.8 4.0 40 6.5 NNE 9 19 5 10 1021.4 1021.5 0.0
30/12:30pm 17.1 13.5 4.8 44 5.9 N 13 19 7 10 1022.0 1022.1 0.0
30/12:00pm 16.7 13.2 5.3 47 5.5 N 13 19 7 10 1022.6 1022.7 0.0
30/11:30am 16.4 13.7 5.7 49 5.2 NNW 9 13 5 7 1023.3 1023.4 0.0
30/11:00am 14.1 13.3 6.5 60 3.7 CALM 0 0 0 0 1024.1 1024.2 0.0
30/10:30am 12.3 11.4 5.9 65 3.0 CALM 0 0 0 0 1025.1 1025.2 0.0

Other Formats:

Comma delimited format used in spreadsheet applications
http://www.bom.gov.au/fwo/IDN60801/IDN60801.94755.axf

JavaScript Object Notation format (JSON) in row-major order
http://www.bom.gov.au/fwo/IDN60801/IDN60801.94755.json